Time;durP1;ratioP1;P1;durP2;ratioP2;P2;SDS_P1;SDS_P2;PMS_P1;PMS_P2;Temp;Humidity;BMP_temperature;BMP_pressure;BME280_temperature;BME280_humidity;BME280_pressure;Samples;Min_cycle;Max_cycle;Signal;HPM_P1;HPM_P2
2021/04/28 00:01:10;;;;;;;2.47;1.47;;;22.40;45.50;;;;;;6300686;22;20364;-85
2021/04/28 00:03:39;;;;;;;1.87;1.60;;;22.40;45.50;;;;;;6300201;22;20372;-86
2021/04/28 00:06:08;;;;;;;2.10;1.17;;;22.40;45.50;;;;;;6298327;22;20451;-86
2021/04/28 00:08:34;;;;;;;1.90;1.30;;;22.40;45.60;;;;;;6300206;22;20371;-86
2021/04/28 00:11:04;;;;;;;1.43;1.20;;;22.40;45.50;;;;;;6299958;22;20403;-85
2021/04/28 00:13:35;;;;;;;2.40;1.40;;;22.40;45.50;;;;;;6299042;22;20458;-84
2021/04/28 00:16:01;;;;;;;1.60;1.50;;;22.40;45.50;;;;;;6300029;22;20371;-84
2021/04/28 00:18:36;;;;;;;1.60;1.50;;;22.40;45.60;;;;;;6324987;22;20376;-85
2021/04/28 00:21:03;;;;;;;2.60;1.43;;;22.40;45.60;;;;;;6296263;22;20442;-85
2021/04/28 00:23:32;;;;;;;2.20;1.60;;;22.40;45.60;;;;;;6299920;22;20375;-85
2021/04/28 00:26:13;;;;;;;2.20;1.47;;;22.40;45.60;;;;;;6300342;22;20443;-86
2021/04/28 00:28:40;;;;;;;1.70;1.23;;;22.40;45.60;;;;;;6301394;22;20387;-86
2021/04/28 00:31:06;;;;;;;2.17;1.60;;;22.30;45.60;;;;;;6300767;22;20379;-86
2021/04/28 00:33:32;;;;;;;2.00;1.70;;;22.30;45.60;;;;;;6300251;22;20445;-86
2021/04/28 00:36:02;;;;;;;1.80;1.57;;;22.30;45.60;;;;;;6274413;22;20380;-86
2021/04/28 00:38:28;;;;;;;1.80;1.20;;;22.40;45.60;;;;;;6326842;22;20360;-86
2021/04/28 00:40:55;;;;;;;1.67;1.50;;;22.30;45.60;;;;;;6299325;22;20863;-86
2021/04/28 00:43:23;;;;;;;1.60;1.43;;;22.30;45.60;;;;;;6327414;22;20395;-86
2021/04/28 00:45:52;;;;;;;1.70;1.30;;;22.30;45.60;;;;;;6299444;22;20384;-86
2021/04/28 00:48:18;;;;;;;1.87;1.40;;;22.30;45.70;;;;;;6298985;22;20379;-86
2021/04/28 00:50:46;;;;;;;1.83;1.43;;;22.30;45.70;;;;;;6299953;22;20383;-85
2021/04/28 00:53:17;;;;;;;1.57;1.47;;;22.30;45.70;;;;;;6299146;22;20176;-85
2021/04/28 00:55:44;;;;;;;2.37;1.70;;;22.30;45.70;;;;;;6298928;22;20398;-86
2021/04/28 00:58:13;;;;;;;2.37;1.70;;;22.30;45.70;;;;;;6299760;22;20443;-86
2021/04/28 01:00:47;;;;;;;1.83;1.40;;;22.30;45.70;;;;;;6299593;22;20376;-85
2021/04/28 01:03:14;;;;;;;1.57;1.43;;;22.30;45.70;;;;;;6326263;22;20355;-85
2021/04/28 01:05:42;;;;;;;1.97;1.60;;;22.30;45.70;;;;;;6298132;22;20390;-86
2021/04/28 01:08:09;;;;;;;1.50;1.40;;;22.30;45.60;;;;;;6300359;22;20380;-85
2021/04/28 01:10:36;;;;;;;1.90;1.57;;;22.30;45.60;;;;;;6302431;22;20431;-86
2021/04/28 01:13:05;;;;;;;1.80;1.43;;;22.30;45.70;;;;;;6302051;22;20423;-86
2021/04/28 01:15:33;;;;;;;3.27;1.90;;;22.30;45.70;;;;;;6302507;22;20442;-86
2021/04/28 01:18:00;;;;;;;2.07;1.40;;;22.30;45.70;;;;;;6303477;22;20480;-86
2021/04/28 01:20:31;;;;;;;2.00;1.70;;;22.20;45.60;;;;;;6275887;22;20380;-86
2021/04/28 01:22:57;;;;;;;2.07;1.67;;;22.30;45.70;;;;;;6303239;22;20452;-86
2021/04/28 01:25:25;;;;;;;2.77;1.93;;;22.30;45.70;;;;;;6303118;22;20383;-86
2021/04/28 01:28:10;;;;;;;3.33;1.80;;;22.30;45.70;;;;;;6276047;22;20161;-86
2021/04/28 01:30:48;;;;;;;2.67;2.03;;;22.30;45.70;;;;;;6301861;22;20364;-85
2021/04/28 01:33:44;;;;;;;3.13;2.00;;;22.30;45.70;;;;;;6300834;22;20424;-85
2021/04/28 01:36:22;;;;;;;1.90;1.67;;;22.20;45.50;;;;;;6298793;22;20379;-85
2021/04/28 01:38:52;;;;;;;2.50;1.80;;;22.30;45.70;;;;;;6298207;22;20440;-85
2021/04/28 01:41:19;;;;;;;1.93;1.57;;;22.30;45.70;;;;;;6301396;22;20383;-85
2021/04/28 01:43:47;;;;;;;2.13;1.93;;;22.20;45.70;;;;;;6328222;22;20386;-84
2021/04/28 01:46:14;;;;;;;1.97;1.80;;;22.20;45.70;;;;;;6301256;22;20464;-85
2021/04/28 01:48:42;;;;;;;2.57;1.80;;;22.20;45.70;;;;;;6300761;22;20426;-85
2021/04/28 01:51:11;;;;;;;2.03;1.83;;;22.20;45.70;;;;;;6328683;22;20386;-86
2021/04/28 01:53:46;;;;;;;3.47;2.40;;;22.20;45.70;;;;;;6274697;22;20427;-86
2021/04/28 01:56:15;;;;;;;1.87;1.60;;;22.20;45.60;;;;;;6329109;22;20351;-86
2021/04/28 01:58:44;;;;;;;2.53;1.97;;;22.20;45.70;;;;;;6301280;22;20383;-86
2021/04/28 02:01:10;;;;;;;1.97;1.70;;;22.20;45.70;;;;;;6300873;22;20386;-86
2021/04/28 02:03:37;;;;;;;3.27;2.07;;;22.20;46.20;;;;;;6300049;22;20383;-86
2021/04/28 02:06:04;;;;;;;2.47;2.00;;;22.20;45.70;;;;;;6300701;22;20392;-85
2021/04/28 02:08:30;;;;;;;2.23;1.90;;;22.20;45.70;;;;;;6326910;22;20431;-86
2021/04/28 02:11:03;;;;;;;2.57;2.33;;;22.30;45.80;;;;;;6328151;22;20386;-86
2021/04/28 02:13:34;;;;;;;2.30;1.77;;;22.30;45.80;;;;;;6301370;22;20878;-85
2021/04/28 02:16:06;;;;;;;2.37;2.00;;;22.20;45.70;;;;;;6301978;22;20391;-85
2021/04/28 02:18:37;;;;;;;2.17;1.87;;;22.30;45.90;;;;;;6329122;22;20680;-85
2021/04/28 02:21:04;;;;;;;2.03;1.70;;;22.20;45.80;;;;;;6301781;22;20364;-85
2021/04/28 02:23:40;;;;;;;2.33;2.13;;;22.20;45.80;;;;;;6301887;22;20384;-85
2021/04/28 02:26:06;;;;;;;2.37;1.50;;;22.20;45.70;;;;;;6301954;22;20383;-86
2021/04/28 02:28:32;;;;;;;2.13;1.60;;;22.20;46.50;;;;;;6301893;22;20394;-85
2021/04/28 02:30:59;;;;;;;2.30;1.77;;;22.20;45.90;;;;;;6301954;22;20390;-85
2021/04/28 02:33:25;;;;;;;2.00;1.80;;;22.20;45.80;;;;;;6300288;22;20418;-85
2021/04/28 02:35:54;;;;;;;1.60;1.40;;;22.10;45.60;;;;;;6300358;22;20390;-86
2021/04/28 02:38:25;;;;;;;2.13;1.73;;;22.20;45.80;;;;;;6300209;22;20376;-86
2021/04/28 02:40:55;;;;;;;1.93;1.60;;;22.10;45.60;;;;;;6327989;22;20419;-86
2021/04/28 02:43:23;;;;;;;1.60;1.50;;;22.10;45.70;;;;;;6297334;22;20375;-85
2021/04/28 02:45:51;;;;;;;1.77;1.60;;;22.10;45.70;;;;;;6297908;22;20403;-84
2021/04/28 02:48:19;;;;;;;1.97;1.77;;;22.20;45.70;;;;;;6298301;22;20443;-85
2021/04/28 02:50:45;;;;;;;2.23;2.03;;;22.20;45.80;;;;;;6324800;22;20371;-84
2021/04/28 02:53:14;;;;;;;3.80;2.40;;;22.20;45.80;;;;;;6297613;22;20422;-84
2021/04/28 02:55:43;;;;;;;1.90;1.60;;;22.20;45.80;;;;;;6297096;22;20384;-84
2021/04/28 02:58:12;;;;;;;1.87;1.60;;;22.20;45.70;;;;;;6324815;22;20374;-84
2021/04/28 03:00:41;;;;;;;2.00;1.80;;;22.10;45.70;;;;;;6297610;22;20372;-84
2021/04/28 03:03:07;;;;;;;2.20;1.77;;;22.20;45.70;;;;;;6298271;22;20386;-83
2021/04/28 03:05:33;;;;;;;2.43;2.10;;;22.20;45.80;;;;;;6298282;22;20388;-83
2021/04/28 03:07:59;;;;;;;2.43;2.23;;;22.10;45.80;;;;;;6297543;22;20403;-83
2021/04/28 03:10:27;;;;;;;2.00;1.90;;;22.10;45.90;;;;;;6323775;22;20149;-83
2021/04/28 03:12:53;;;;;;;2.20;1.80;;;22.10;45.90;;;;;;6297816;22;20427;-83
2021/04/28 03:15:20;;;;;;;2.03;1.73;;;22.10;45.80;;;;;;6297121;22;20387;-83
2021/04/28 03:17:47;;;;;;;1.93;1.73;;;22.10;45.80;;;;;;6298086;22;20372;-84
2021/04/28 03:20:15;;;;;;;2.27;2.07;;;22.10;45.80;;;;;;6297900;22;20445;-84
2021/04/28 03:22:41;;;;;;;2.43;1.90;;;22.10;45.80;;;;;;6297880;22;20452;-84
2021/04/28 03:25:09;;;;;;;2.13;1.80;;;22.10;45.80;;;;;;6298072;22;20387;-83
2021/04/28 03:27:35;;;;;;;2.30;2.10;;;22.10;45.80;;;;;;6298603;22;20383;-83
2021/04/28 03:30:01;;;;;;;2.10;1.80;;;22.10;45.80;;;;;;6299238;22;20433;-83
2021/04/28 03:32:26;;;;;;;8.23;3.90;;;22.20;46.10;;;;;;6324054;22;20411;-83
2021/04/28 03:34:52;;;;;;;2.67;2.00;;;22.20;45.90;;;;;;6297268;22;20149;-83
2021/04/28 03:37:18;;;;;;;2.17;1.70;;;22.20;46.10;;;;;;6325718;22;20141;-83
2021/04/28 03:39:44;;;;;;;2.27;2.00;;;22.10;45.70;;;;;;6297072;22;20156;-83
2021/04/28 03:42:23;;;;;;;2.23;2.00;;;22.10;45.80;;;;;;6325262;22;20163;-83
2021/04/28 03:44:51;;;;;;;2.07;1.83;;;22.10;45.70;;;;;;6297472;22;20692;-83
2021/04/28 03:47:20;;;;;;;2.30;1.80;;;22.10;45.70;;;;;;6297959;22;20402;-84
2021/04/28 03:49:46;;;;;;;1.87;1.47;;;22.10;45.70;;;;;;6297954;22;20386;-83
2021/04/28 03:52:13;;;;;;;2.30;1.93;;;22.10;45.80;;;;;;6297959;22;20405;-83
2021/04/28 03:54:39;;;;;;;2.70;2.30;;;22.10;45.70;;;;;;6297795;22;20372;-84
2021/04/28 03:57:06;;;;;;;2.90;2.07;;;22.10;45.90;;;;;;6326226;22;20359;-84
2021/04/28 03:59:36;;;;;;;2.90;2.10;;;22.10;45.70;;;;;;6299020;22;20425;-84
2021/04/28 04:02:04;;;;;;;2.10;1.77;;;22.10;45.70;;;;;;6299091;22;20467;-84
2021/04/28 04:04:30;;;;;;;2.60;2.23;;;22.10;45.70;;;;;;6273555;22;20712;-84
2021/04/28 04:06:56;;;;;;;2.53;2.10;;;22.20;45.90;;;;;;6299711;22;20482;-84
2021/04/28 04:09:21;;;;;;;2.70;2.40;;;22.10;45.80;;;;;;6299365;22;20383;-84
2021/04/28 04:11:58;;;;;;;2.20;1.70;;;22.10;45.90;;;;;;6298540;22;20181;-84
2021/04/28 04:14:29;;;;;;;2.40;2.10;;;22.10;46.00;;;;;;6299315;22;20196;-84
2021/04/28 04:16:54;;;;;;;2.10;1.90;;;22.10;45.80;;;;;;6273681;22;20390;-83
2021/04/28 04:19:20;;;;;;;2.43;1.77;;;22.10;45.80;;;;;;6297502;22;20404;-84
2021/04/28 04:25:09;;;;;;;2.23;1.73;;;22.10;45.70;;;;;;6325010;22;20156;-84
2021/04/28 04:27:35;;;;;;;1.53;1.43;;;22.00;46.00;;;;;;6325336;22;20840;-84
2021/04/28 04:30:09;;;;;;;3.37;2.40;;;22.00;45.90;;;;;;6298781;22;20384;-83
2021/04/28 04:32:36;;;;;;;1.90;1.70;;;22.00;45.70;;;;;;6296546;22;20412;-83
2021/04/28 04:35:03;;;;;;;3.03;2.13;;;22.00;45.70;;;;;;6325526;22;20392;-84
2021/04/28 04:37:29;;;;;;;2.73;1.97;;;22.00;45.60;;;;;;6298098;22;20729;-84
2021/04/28 04:39:55;;;;;;;1.90;1.40;;;22.00;45.80;;;;;;6324149;22;20367;-83
2021/04/28 04:42:21;;;;;;;1.73;1.60;;;22.10;45.80;;;;;;6296732;22;20443;-84
2021/04/28 04:44:47;;;;;;;2.80;1.60;;;22.10;45.90;;;;;;6296791;22;20156;-83
2021/04/28 04:47:13;;;;;;;2.13;1.70;;;22.10;45.90;;;;;;6297418;22;20375;-84
2021/04/28 04:49:39;;;;;;;2.20;1.23;;;22.10;46.00;;;;;;6297789;22;20181;-83
2021/04/28 04:52:05;;;;;;;1.63;1.40;;;22.10;45.70;;;;;;6297838;22;20232;-84
2021/04/28 04:54:31;;;;;;;1.80;1.53;;;22.10;45.50;;;;;;6297727;22;20419;-83
2021/04/28 04:56:58;;;;;;;1.90;1.70;;;22.10;45.60;;;;;;6297529;22;20429;-83
2021/04/28 04:59:30;;;;;;;2.90;1.97;;;22.10;45.60;;;;;;6324530;22;20355;-83
2021/04/28 05:01:56;;;;;;;2.00;1.40;;;22.10;45.80;;;;;;6297241;22;20384;-83
2021/04/28 05:08:09;;;;;;;2.63;1.77;;;22.10;45.40;;;;;;6335389;22;20347;-82
2021/04/28 05:10:38;;;;;;;1.60;1.50;;;22.10;45.70;;;;;;6325552;22;20695;-82
2021/04/28 05:13:07;;;;;;;2.03;1.67;;;22.10;45.70;;;;;;6326792;22;20966;-82
2021/04/28 05:15:33;;;;;;;1.40;1.30;;;22.10;45.60;;;;;;6297013;22;20868;-82
2021/04/28 05:18:02;;;;;;;2.63;1.50;;;22.20;45.90;;;;;;6297468;22;20392;-82
2021/04/28 05:20:29;;;;;;;2.20;1.90;;;22.20;45.70;;;;;;6325790;22;20141;-82
2021/04/28 05:22:55;;;;;;;2.80;1.50;;;22.20;45.80;;;;;;6326043;22;20428;-83
2021/04/28 05:25:21;;;;;;;1.80;1.60;;;22.20;45.80;;;;;;6325620;22;20372;-83
2021/04/28 05:27:47;;;;;;;1.90;1.50;;;22.20;45.90;;;;;;6298131;22;20516;-83
2021/04/28 05:30:13;;;;;;;2.03;1.63;;;22.20;45.90;;;;;;6297929;22;20176;-82
2021/04/28 05:32:40;;;;;;;1.97;1.60;;;22.30;45.50;;;;;;6298228;22;20177;-83
2021/04/28 05:35:11;;;;;;;2.40;1.80;;;22.30;45.60;;;;;;6326475;22;20459;-83
2021/04/28 05:37:38;;;;;;;2.30;1.70;;;22.30;45.60;;;;;;6298557;22;20376;-84
2021/04/28 05:40:10;;;;;;;1.60;1.50;;;22.30;45.50;;;;;;6326040;22;20378;-83
2021/04/28 05:42:39;;;;;;;3.20;2.17;;;22.30;45.40;;;;;;6298962;22;20380;-83
2021/04/28 05:45:15;;;;;;;3.20;1.97;;;22.20;45.40;;;;;;6300002;22;20379;-82
2021/04/28 05:47:43;;;;;;;2.13;1.70;;;22.30;45.60;;;;;;6299879;22;20478;-82
2021/04/28 05:50:13;;;;;;;2.90;2.03;;;22.20;45.40;;;;;;6328124;22;20377;-82
2021/04/28 05:52:41;;;;;;;2.00;1.60;;;22.30;45.40;;;;;;6299682;22;20473;-84
2021/04/28 05:55:14;;;;;;;2.03;1.63;;;22.30;45.40;;;;;;6299746;22;20454;-83
2021/04/28 05:57:42;;;;;;;2.40;1.70;;;22.20;45.40;;;;;;6303518;22;20455;-82
2021/04/28 06:00:12;;;;;;;2.10;1.70;;;22.30;45.70;;;;;;6303839;22;20383;-83
2021/04/28 06:02:39;;;;;;;2.37;2.00;;;22.30;45.40;;;;;;6299386;22;20401;-86
2021/04/28 06:05:15;;;;;;;1.90;1.60;;;22.30;46.00;;;;;;6299938;22;20368;-84
2021/04/28 06:07:44;;;;;;;1.73;1.53;;;22.40;45.50;;;;;;6299024;22;20382;-84
2021/04/28 06:10:11;;;;;;;2.80;1.60;;;22.30;45.50;;;;;;6299565;22;20379;-84
2021/04/28 06:12:37;;;;;;;2.10;1.90;;;22.30;45.40;;;;;;6298941;22;20450;-83
2021/04/28 06:15:07;;;;;;;2.60;2.00;;;22.40;45.80;;;;;;6300425;22;20474;-83
2021/04/28 06:17:33;;;;;;;2.63;2.03;;;22.40;45.40;;;;;;6326826;22;20370;-83
2021/04/28 06:19:59;;;;;;;1.77;1.50;;;22.40;45.90;;;;;;6299339;22;20384;-83
2021/04/28 06:22:25;;;;;;;2.30;1.40;;;22.40;45.40;;;;;;6326569;22;20368;-83
2021/04/28 06:24:51;;;;;;;2.07;1.80;;;22.40;45.50;;;;;;6299660;22;20399;-83
2021/04/28 06:27:18;;;;;;;2.70;1.90;;;22.40;45.80;;;;;;6299366;22;20380;-83
2021/04/28 06:29:44;;;;;;;2.63;2.10;;;22.40;45.50;;;;;;6298621;22;20275;-83
2021/04/28 06:32:10;;;;;;;3.20;1.80;;;22.20;45.70;;;;;;6299479;22;20376;-84
2021/04/28 06:34:36;;;;;;;2.30;1.87;;;22.40;45.60;;;;;;6299991;22;20390;-83
2021/04/28 06:37:02;;;;;;;2.13;1.60;;;22.40;45.60;;;;;;6300259;22;20145;-84
2021/04/28 06:39:28;;;;;;;1.87;1.57;;;22.40;46.00;;;;;;6299446;22;20405;-84
2021/04/28 06:41:55;;;;;;;3.10;2.20;;;22.50;45.70;;;;;;6299507;22;20384;-84
2021/04/28 06:44:20;;;;;;;2.27;1.70;;;22.40;45.40;;;;;;6299496;22;20379;-84
2021/04/28 06:46:46;;;;;;;3.00;2.20;;;22.50;45.60;;;;;;6327515;22;20914;-84
2021/04/28 06:49:12;;;;;;;3.30;1.73;;;22.50;45.60;;;;;;6300299;22;20161;-84
2021/04/28 06:51:40;;;;;;;6.90;2.30;;;22.60;45.60;;;;;;6300933;22;20233;-85
2021/04/28 06:54:11;;;;;;;2.27;1.80;;;22.60;45.50;;;;;;6301367;22;20427;-84
2021/04/28 06:56:41;;;;;;;2.50;1.77;;;22.60;45.70;;;;;;6301479;22;20372;-85
2021/04/28 06:59:08;;;;;;;1.50;1.40;;;22.60;45.70;;;;;;6331200;22;20360;-84
2021/04/28 07:01:37;;;;;;;2.67;1.67;;;22.70;45.50;;;;;;6303340;22;20390;-84
2021/04/28 07:04:03;;;;;;;2.87;1.90;;;22.70;45.60;;;;;;6297536;22;20387;-86
2021/04/28 07:06:33;;;;;;;1.83;1.57;;;22.70;45.50;;;;;;6266805;22;20453;-86
2021/04/28 07:08:59;;;;;;;2.47;1.50;;;22.70;45.70;;;;;;6321262;22;20407;-86
2021/04/28 07:11:28;;;;;;;1.83;1.50;;;22.60;45.70;;;;;;6293481;22;20383;-86
2021/04/28 07:13:54;;;;;;;1.70;1.40;;;22.70;45.60;;;;;;6267301;22;20432;-87
2021/04/28 07:16:19;;;;;;;2.03;1.80;;;22.70;45.60;;;;;;6269272;22;20396;-87
2021/04/28 07:18:46;;;;;;;1.80;1.40;;;22.60;45.60;;;;;;6293161;22;20390;-87
2021/04/28 07:21:21;;;;;;;2.13;1.60;;;22.80;45.70;;;;;;6268571;22;20212;-87
2021/04/28 07:23:51;;;;;;;3.07;1.83;;;22.80;45.50;;;;;;6293713;22;20910;-86
2021/04/28 07:26:20;;;;;;;1.67;1.50;;;22.80;45.50;;;;;;6320664;22;20366;-86
2021/04/28 07:28:51;;;;;;;2.53;1.93;;;22.80;45.50;;;;;;6293724;22;20443;-88
2021/04/28 07:31:18;;;;;;;3.17;1.80;;;22.80;45.60;;;;;;6294896;22;20376;-87
2021/04/28 07:33:45;;;;;;;1.90;1.40;;;22.80;45.70;;;;;;6323079;22;20414;-87
2021/04/28 07:36:12;;;;;;;2.90;1.93;;;22.80;45.70;;;;;;6323698;22;20376;-87
2021/04/28 07:38:38;;;;;;;3.20;1.60;;;22.90;45.60;;;;;;6298328;22;20386;-87
2021/04/28 07:41:11;;;;;;;1.77;1.40;;;22.80;45.50;;;;;;6326916;22;20376;-88
2021/04/28 07:43:37;;;;;;;2.40;1.40;;;22.90;45.80;;;;;;6298446;22;20429;-87
2021/04/28 07:46:03;;;;;;;2.17;1.93;;;22.80;45.70;;;;;;6298560;22;20394;-87
2021/04/28 07:52:04;;;;;;;2.50;1.40;;;22.90;45.50;;;;;;6326188;22;20358;-87
2021/04/28 07:54:31;;;;;;;2.10;1.60;;;22.90;45.90;;;;;;6301172;22;20423;-86
2021/04/28 07:56:59;;;;;;;1.80;1.63;;;22.80;45.70;;;;;;6325488;22;20378;-87
2021/04/28 07:59:27;;;;;;;3.43;1.40;;;22.80;45.70;;;;;;6296458;22;20407;-87
2021/04/28 08:05:18;;;;;;;2.20;1.63;;;22.90;45.50;;;;;;6324299;22;20347;-87
2021/04/28 08:07:49;;;;;;;3.00;1.63;;;22.80;45.50;;;;;;6323053;22;20367;-87
2021/04/28 08:10:17;;;;;;;1.37;1.23;;;22.90;45.50;;;;;;6296498;22;20371;-87
2021/04/28 08:12:48;;;;;;;1.70;1.60;;;22.80;45.70;;;;;;6324168;22;20423;-85
2021/04/28 08:15:16;;;;;;;2.20;1.50;;;22.90;45.60;;;;;;6271347;22;20826;-88
2021/04/28 08:17:48;;;;;;;1.40;1.30;;;22.90;45.70;;;;;;6322912;22;20364;-88
2021/04/28 08:20:14;;;;;;;6.20;1.77;;;22.90;45.50;;;;;;6295540;22;20372;-87
2021/04/28 08:22:41;;;;;;;1.60;1.30;;;22.90;45.60;;;;;;6296196;22;20379;-88
2021/04/28 08:25:11;;;;;;;3.70;1.63;;;22.90;45.70;;;;;;6295613;22;20384;-88
2021/04/28 08:27:38;;;;;;;3.00;1.40;;;23.00;45.70;;;;;;6295705;22;20391;-87
2021/04/28 08:30:13;;;;;;;1.60;1.30;;;23.00;45.90;;;;;;6295766;22;20391;-88
2021/04/28 08:32:39;;;;;;;1.80;1.50;;;22.90;45.60;;;;;;6300522;22;20426;-87
2021/04/28 08:35:06;;;;;;;2.50;1.57;;;23.00;45.90;;;;;;6300221;22;20434;-88
2021/04/28 08:37:46;;;;;;;2.00;1.77;;;23.00;45.80;;;;;;6302755;22;20387;-86
2021/04/28 08:40:16;;;;;;;2.30;1.50;;;23.00;45.80;;;;;;6325289;22;20355;-85
2021/04/28 08:42:46;;;;;;;1.53;1.40;;;23.00;45.80;;;;;;6296092;22;20682;-85
2021/04/28 08:45:13;;;;;;;1.60;1.50;;;23.00;45.80;;;;;;6325138;22;20383;-85
2021/04/28 08:51:46;;;;;;;1.90;1.43;;;23.00;45.60;;;;;;6200959;23;20373;-85
2021/04/28 08:54:13;;;;;;;2.00;1.40;;;23.00;45.60;;;;;;6175518;23;20426;-85
2021/04/28 08:56:54;;;;;;;2.33;1.40;;;23.00;46.00;;;;;;6177664;23;20832;-85
2021/04/28 08:59:23;;;;;;;1.50;1.30;;;22.90;45.60;;;;;;6200589;23;20442;-86
2021/04/28 09:01:49;;;;;;;1.60;1.30;;;23.00;46.10;;;;;;6176702;23;20468;-84
2021/04/28 09:04:26;;;;;;;1.93;1.63;;;23.00;46.00;;;;;;6177944;23;20539;-84
2021/04/28 09:06:52;;;;;;;1.87;1.60;;;23.20;45.80;;;;;;6177818;23;20379;-84
2021/04/28 09:09:19;;;;;;;1.60;1.50;;;23.00;45.90;;;;;;6177358;23;20478;-84
2021/04/28 09:11:56;;;;;;;3.97;1.40;;;23.00;45.70;;;;;;6177070;23;20513;-84
2021/04/28 09:14:26;;;;;;;1.97;1.40;;;23.10;45.70;;;;;;6202690;23;20509;-84
2021/04/28 09:16:55;;;;;;;1.40;1.20;;;23.00;45.70;;;;;;6177928;23;20379;-84
2021/04/28 09:19:52;;;;;;;1.70;1.30;;;23.10;45.90;;;;;;6202243;23;20389;-84
2021/04/28 09:22:26;;;;;;;2.33;1.40;;;23.00;45.70;;;;;;6203473;23;20490;-84
2021/04/28 09:24:56;;;;;;;2.63;1.43;;;23.10;45.80;;;;;;6203579;23;20413;-84
2021/04/28 09:27:38;;;;;;;1.60;1.10;;;23.10;45.90;;;;;;6268515;22;20376;-84
2021/04/28 09:30:11;;;;;;;2.40;1.63;;;23.10;45.70;;;;;;6300957;22;20405;-85
2021/04/28 09:32:40;;;;;;;1.33;1.23;;;23.10;45.80;;;;;;6329629;22;20463;-84
2021/04/28 09:35:32;;;;;;;1.80;1.50;;;23.10;45.80;;;;;;6304642;22;20379;-84
2021/04/28 09:38:00;;;;;;;2.60;1.60;;;23.10;45.90;;;;;;6298401;22;20705;-84
2021/04/28 09:40:48;;;;;;;1.77;1.10;;;23.10;45.80;;;;;;6330642;22;20442;-84
2021/04/28 09:43:18;;;;;;;1.40;1.30;;;23.10;45.70;;;;;;6330875;22;20356;-83
2021/04/28 09:45:54;;;;;;;4.67;1.70;;;23.10;45.90;;;;;;6302563;22;20496;-85
2021/04/28 09:48:25;;;;;;;2.13;1.37;;;23.10;45.80;;;;;;6253837;22;20398;-84
2021/04/28 09:51:03;;;;;;;2.43;1.40;;;23.10;45.70;;;;;;6303713;22;20383;-85
2021/04/28 09:53:32;;;;;;;1.53;1.20;;;23.10;46.10;;;;;;6302985;22;20793;-84
2021/04/28 09:55:58;;;;;;;1.80;1.50;;;23.10;45.80;;;;;;6327773;22;20770;-83
2021/04/28 09:58:47;;;;;;;1.67;1.33;;;23.00;46.10;;;;;;6296775;22;20382;-83
2021/04/28 10:01:15;;;;;;;1.60;1.40;;;23.10;45.70;;;;;;6294492;22;20401;-84
2021/04/28 10:04:07;;;;;;;2.97;2.07;;;23.10;45.80;;;;;;6294430;22;20391;-83
2021/04/28 10:06:46;;;;;;;1.80;1.23;;;23.20;45.80;;;;;;6302121;22;20367;-85
2021/04/28 10:09:41;;;;;;;1.57;1.47;;;23.00;45.70;;;;;;6305477;22;20370;-84
2021/04/28 10:12:13;;;;;;;1.43;1.33;;;23.20;45.80;;;;;;6301563;22;20441;-84
2021/04/28 10:14:40;;;;;;;1.70;1.20;;;23.10;46.00;;;;;;6302778;22;20418;-84
2021/04/28 10:17:07;;;;;;;1.83;1.50;;;23.10;45.90;;;;;;6329189;22;20376;-84
2021/04/28 10:19:36;;;;;;;1.73;1.30;;;23.10;45.90;;;;;;6328510;22;20455;-84
2021/04/28 10:22:16;;;;;;;1.40;1.00;;;23.20;45.90;;;;;;6303221;22;20386;-84
2021/04/28 10:24:45;;;;;;;1.87;1.33;;;23.20;45.90;;;;;;6302096;22;20383;-84
2021/04/28 10:27:24;;;;;;;1.60;1.10;;;23.10;45.80;;;;;;6300617;22;20388;-84
2021/04/28 10:29:52;;;;;;;1.50;1.40;;;23.10;45.80;;;;;;6327813;22;20355;-84
2021/04/28 10:32:25;;;;;;;1.43;1.30;;;23.10;45.90;;;;;;6299498;22;20405;-84
2021/04/28 10:35:13;;;;;;;1.90;1.40;;;23.10;45.90;;;;;;6326399;22;20366;-84
2021/04/28 10:37:51;;;;;;;1.50;1.40;;;23.10;45.90;;;;;;6297138;22;20375;-85
2021/04/28 10:40:26;;;;;;;1.40;1.20;;;23.10;45.90;;;;;;6298844;22;20383;-85
2021/04/28 10:43:14;;;;;;;1.47;1.30;;;23.10;45.90;;;;;;6298771;22;20385;-85
2021/04/28 10:45:48;;;;;;;2.13;1.40;;;23.00;45.80;;;;;;6298529;22;20379;-84
2021/04/28 10:48:40;;;;;;;2.07;1.87;;;23.00;45.80;;;;;;6325778;22;20352;-85
2021/04/28 10:51:06;;;;;;;2.17;1.70;;;23.00;45.90;;;;;;6286200;22;20394;-85
2021/04/28 10:53:31;;;;;;;2.50;1.60;;;22.90;46.00;;;;;;6326088;22;20498;-85
2021/04/28 10:56:17;;;;;;;1.97;1.20;;;23.00;46.30;;;;;;6299678;22;20392;-85
2021/04/28 10:58:47;;;;;;;2.57;1.40;;;23.00;46.10;;;;;;6327905;22;20145;-85
2021/04/28 11:01:21;;;;;;;2.37;1.40;;;23.00;46.00;;;;;;6299091;22;20436;-86
2021/04/28 11:06:42;;;;;;;2.33;1.10;;;22.90;45.90;;;;;;6205194;23;20393;-87
2021/04/28 11:09:11;;;;;;;1.40;1.30;;;22.90;46.00;;;;;;6204392;23;20374;-86
2021/04/28 11:11:41;;;;;;;1.50;1.40;;;22.90;46.00;;;;;;6204278;23;20375;-86
2021/04/28 11:14:20;;;;;;;1.93;1.60;;;22.90;45.90;;;;;;6177150;23;20430;-85
2021/04/28 11:16:53;;;;;;;1.27;1.17;;;22.90;45.90;;;;;;6202406;23;20455;-86
2021/04/28 11:19:39;;;;;;;1.60;1.47;;;22.90;45.90;;;;;;6201944;23;20359;-86
2021/04/28 11:22:24;;;;;;;1.50;1.27;;;22.90;46.10;;;;;;6201809;23;20375;-84
2021/04/28 11:24:57;;;;;;;1.67;1.30;;;22.90;45.90;;;;;;6176627;23;20371;-87
2021/04/28 11:27:59;;;;;;;3.10;1.70;;;22.90;46.00;;;;;;6202030;23;20390;-85
2021/04/28 11:30:27;;;;;;;1.60;1.50;;;23.00;46.10;;;;;;6197723;23;20359;-84
2021/04/28 11:33:11;;;;;;;2.20;1.90;;;22.80;46.70;;;;;;6172742;23;20901;-84
2021/04/28 11:35:40;;;;;;;1.63;1.27;;;22.90;46.10;;;;;;6171494;23;20757;-84
2021/04/28 11:38:12;;;;;;;1.63;1.30;;;22.80;46.10;;;;;;6300218;22;20375;-84
2021/04/28 11:41:10;;;;;;;2.20;1.30;;;22.80;46.00;;;;;;6294512;22;20371;-84
2021/04/28 11:43:51;;;;;;;1.43;1.33;;;22.80;46.00;;;;;;6299849;22;20411;-84
2021/04/28 11:46:21;;;;;;;1.60;1.13;;;22.80;46.00;;;;;;6301823;22;20390;-84
2021/04/28 11:48:55;;;;;;;1.50;1.40;;;22.80;46.10;;;;;;6302453;22;20392;-84
2021/04/28 11:51:33;;;;;;;1.67;1.50;;;22.90;46.20;;;;;;6303264;22;20381;-84
2021/04/28 11:54:04;;;;;;;3.20;1.80;;;22.80;46.00;;;;;;6278546;22;20491;-85
2021/04/28 11:56:44;;;;;;;1.57;1.20;;;22.80;46.10;;;;;;6331818;22;20419;-85
2021/04/28 11:59:31;;;;;;;1.80;1.60;;;22.80;46.00;;;;;;6303859;22;20371;-84
2021/04/28 12:02:03;;;;;;;1.53;1.30;;;22.80;46.10;;;;;;6301787;22;20375;-84
2021/04/28 12:04:49;;;;;;;2.10;1.37;;;22.70;46.00;;;;;;6301971;22;20391;-84
2021/04/28 12:07:17;;;;;;;3.03;1.47;;;22.80;46.10;;;;;;6303835;22;20367;-84
2021/04/28 12:09:51;;;;;;;1.27;1.10;;;22.80;46.10;;;;;;6302462;22;20406;-85
2021/04/28 12:12:35;;;;;;;1.83;1.37;;;22.80;46.10;;;;;;6300890;22;20375;-85
2021/04/28 12:15:10;;;;;;;1.70;1.30;;;22.80;46.20;;;;;;6326507;22;20410;-85
2021/04/28 12:17:53;;;;;;;3.00;1.40;;;22.80;46.40;;;;;;6298596;22;20371;-84
2021/04/28 12:20:23;;;;;;;1.70;1.47;;;22.70;46.10;;;;;;6328531;22;20369;-83
2021/04/28 12:22:51;;;;;;;2.97;1.60;;;22.70;46.10;;;;;;6326748;22;20399;-83
2021/04/28 12:25:19;;;;;;;1.93;1.23;;;22.70;46.10;;;;;;6295010;22;20386;-85
2021/04/28 12:27:46;;;;;;;2.43;2.23;;;22.80;46.20;;;;;;6294491;22;20914;-85
2021/04/28 12:30:23;;;;;;;2.90;1.40;;;22.70;46.10;;;;;;6294908;22;20394;-85
2021/04/28 12:32:57;;;;;;;2.37;1.30;;;22.80;46.10;;;;;;6294211;22;20419;-85
2021/04/28 12:35:27;;;;;;;4.10;1.60;;;22.70;46.00;;;;;;6294625;22;20401;-84
2021/04/28 12:38:04;;;;;;;2.37;1.20;;;22.70;46.10;;;;;;6322321;22;20360;-85
2021/04/28 12:40:42;;;;;;;3.10;1.30;;;22.70;46.10;;;;;;6292975;22;20454;-85
2021/04/28 12:43:15;;;;;;;1.30;1.10;;;22.50;45.90;;;;;;6296443;22;20459;-85
2021/04/28 12:45:42;;;;;;;2.70;1.90;;;22.70;46.30;;;;;;6296735;22;20387;-85
2021/04/28 12:48:18;;;;;;;2.60;1.30;;;22.70;46.40;;;;;;6297659;22;20387;-85
2021/04/28 12:50:46;;;;;;;1.80;1.60;;;22.70;46.10;;;;;;6323421;22;20370;-85
2021/04/28 12:53:21;;;;;;;1.60;1.40;;;22.60;46.10;;;;;;6323214;22;20438;-85
2021/04/28 12:55:51;;;;;;;2.23;1.20;;;22.70;46.20;;;;;;6295808;22;20364;-85
2021/04/28 12:58:20;;;;;;;1.63;1.50;;;22.70;46.20;;;;;;6297540;22;20379;-84
2021/04/28 13:00:48;;;;;;;1.50;1.40;;;22.70;46.20;;;;;;6299293;22;20413;-85
2021/04/28 13:03:17;;;;;;;1.73;1.50;;;22.70;46.70;;;;;;6294468;22;20380;-86
2021/04/28 13:05:56;;;;;;;2.50;1.40;;;22.60;46.10;;;;;;6323436;22;20374;-86
2021/04/28 13:08:38;;;;;;;2.40;2.10;;;22.70;46.20;;;;;;6323517;22;20454;-86
2021/04/28 13:11:23;;;;;;;1.40;1.30;;;22.70;46.10;;;;;;6294989;22;20392;-85
2021/04/28 13:14:20;;;;;;;2.03;1.30;;;22.60;46.40;;;;;;6322489;22;20407;-86
2021/04/28 13:16:54;;;;;;;1.40;1.30;;;22.60;46.10;;;;;;6294656;22;20391;-84
2021/04/28 13:19:28;;;;;;;2.50;1.57;;;22.60;46.40;;;;;;6294154;22;20433;-86
2021/04/28 13:21:56;;;;;;;1.50;1.40;;;22.60;46.30;;;;;;6321634;22;20363;-85
2021/04/28 13:24:36;;;;;;;1.70;1.40;;;22.60;46.20;;;;;;6321982;22;20372;-85
2021/04/28 13:27:06;;;;;;;1.97;1.40;;;22.60;46.20;;;;;;6294577;22;20371;-87